createdAt,value
2019-02-28T00:01:35.418Z,41.10
2019-02-28T00:04:06.871Z,38.50
2019-02-28T00:06:37.225Z,41.00
2019-02-28T00:09:11.536Z,39.67
2019-02-28T00:11:42.198Z,38.40
2019-02-28T00:14:12.572Z,39.10
2019-02-28T00:16:42.843Z,37.67
2019-02-28T00:19:13.086Z,37.17
2019-02-28T00:21:44.018Z,38.83
2019-02-28T00:24:14.282Z,39.50
2019-02-28T00:26:47.531Z,39.87
2019-02-28T00:29:16.518Z,38.87
2019-02-28T00:31:49.469Z,40.73
2019-02-28T00:34:18.706Z,38.40
2019-02-28T00:36:50.391Z,41.03
2019-02-28T00:39:21.074Z,40.87
2019-02-28T00:41:51.479Z,38.43
2019-02-28T00:44:21.713Z,39.83
2019-02-28T00:46:52.018Z,40.60
2019-02-28T00:49:24.458Z,36.67
2019-02-28T00:51:54.940Z,36.47
2019-02-28T00:54:25.468Z,36.70
2019-02-28T00:56:55.689Z,37.47
2019-02-28T00:59:25.996Z,37.13
2019-02-28T01:01:56.408Z,37.07
2019-02-28T01:04:30.037Z,34.70
2019-02-28T01:06:58.675Z,37.67
2019-02-28T01:09:30.232Z,37.57
2019-02-28T01:12:01.217Z,36.07
2019-02-28T01:14:32.449Z,36.17
2019-02-28T01:17:03.929Z,35.97
2019-02-28T01:19:34.227Z,36.27
2019-02-28T01:22:05.593Z,35.37
2019-02-28T01:24:35.821Z,36.23
2019-02-28T01:27:06.079Z,35.30
2019-02-28T01:29:36.426Z,34.60
2019-02-28T01:32:06.907Z,33.43
2019-02-28T01:34:37.155Z,34.37
2019-02-28T01:37:07.645Z,35.27
2019-02-28T01:39:37.958Z,33.30
2019-02-28T01:42:08.267Z,34.33
2019-02-28T01:44:38.663Z,33.77
2019-02-28T01:47:09.055Z,34.17
2019-02-28T01:49:39.316Z,32.83
2019-02-28T01:52:10.627Z,33.07
2019-02-28T01:54:41.043Z,31.83
2019-02-28T01:57:11.383Z,31.73
2019-02-28T01:59:41.626Z,32.07
2019-02-28T02:02:11.971Z,32.37
2019-02-28T02:04:43.238Z,32.30
2019-02-28T02:07:14.187Z,32.13
2019-02-28T02:09:46.258Z,31.13
2019-02-28T02:12:16.663Z,32.37
2019-02-28T02:14:47.051Z,30.77
2019-02-28T02:17:17.343Z,32.30
2019-02-28T02:19:49.359Z,30.00
2019-02-28T02:22:19.846Z,31.27
2019-02-28T02:24:51.188Z,29.53
2019-02-28T02:27:21.539Z,30.37
2019-02-28T02:29:51.822Z,30.13
2019-02-28T02:32:22.112Z,29.40
2019-02-28T02:34:52.363Z,29.17
2019-02-28T02:37:26.457Z,30.23
2019-02-28T02:39:54.614Z,29.50
2019-02-28T02:42:25.256Z,28.47
2019-02-28T02:44:55.483Z,28.17
2019-02-28T02:47:31.318Z,27.93
2019-02-28T02:49:57.960Z,29.13
2019-02-28T02:52:30.397Z,29.77
2019-02-28T02:55:00.329Z,29.97
2019-02-28T02:57:30.675Z,27.73
2019-02-28T03:00:02.301Z,28.00
2019-02-28T03:02:33.350Z,27.47
2019-02-28T03:05:04.837Z,28.40
2019-02-28T03:07:35.235Z,28.27
2019-02-28T03:10:05.987Z,28.63
2019-02-28T03:12:36.289Z,29.37
2019-02-28T03:15:07.304Z,28.83
2019-02-28T03:17:37.608Z,28.53
2019-02-28T03:20:09.032Z,27.07
2019-02-28T03:22:39.334Z,29.30
2019-02-28T03:25:10.648Z,26.73
2019-02-28T03:27:40.897Z,27.73
2019-02-28T03:30:25.773Z,26.73
2019-02-28T03:32:45.976Z,27.00
2019-02-28T03:35:16.437Z,25.83
2019-02-28T03:37:46.603Z,25.60
2019-02-28T03:40:16.864Z,25.47
2019-02-28T03:42:47.071Z,25.93
2019-02-28T03:45:18.119Z,26.00
2019-02-28T03:47:48.380Z,26.60
2019-02-28T03:50:21.961Z,26.03
2019-02-28T03:52:50.829Z,26.13
2019-02-28T03:55:21.574Z,25.67
2019-02-28T03:57:51.882Z,25.97
2019-02-28T04:00:22.091Z,27.13
2019-02-28T04:02:58.742Z,26.00
2019-02-28T04:05:28.129Z,25.27
2019-02-28T04:07:56.459Z,25.13
2019-02-28T04:10:26.876Z,25.37
2019-02-28T04:12:57.519Z,24.13
2019-02-28T04:15:27.804Z,25.10
2019-02-28T04:17:58.330Z,25.27
2019-02-28T04:20:36.141Z,24.70
2019-02-28T04:23:00.527Z,24.63
2019-02-28T04:25:30.814Z,25.27
2019-02-28T04:28:01.055Z,24.93
2019-02-28T04:30:34.601Z,25.60
2019-02-28T04:33:04.880Z,25.87
2019-02-28T04:35:35.312Z,26.03
2019-02-28T04:38:05.550Z,24.97
2019-02-28T04:40:36.007Z,25.30
2019-02-28T04:43:07.241Z,25.87
2019-02-28T04:45:38.186Z,25.17
2019-02-28T04:48:13.351Z,25.80
2019-02-28T04:50:40.677Z,24.27
2019-02-28T04:53:10.931Z,24.93
2019-02-28T04:55:41.417Z,25.10
2019-02-28T04:58:11.630Z,25.43
2019-02-28T05:00:42.009Z,25.77
2019-02-28T05:03:12.265Z,25.43
2019-02-28T05:05:46.382Z,25.03
2019-02-28T05:08:14.559Z,25.73
2019-02-28T05:10:46.021Z,25.07
2019-02-28T05:13:16.371Z,24.87
2019-02-28T05:15:46.725Z,26.10
2019-02-28T05:18:17.181Z,25.63
2019-02-28T05:20:48.674Z,24.87
2019-02-28T05:23:19.121Z,26.37
2019-02-28T05:25:52.075Z,25.20
2019-02-28T05:28:21.865Z,24.93
2019-02-28T05:30:53.758Z,24.97
2019-02-28T05:33:24.167Z,24.77
2019-02-28T05:35:57.255Z,24.77
2019-02-28T05:38:26.406Z,25.17
2019-02-28T05:40:56.697Z,25.03
2019-02-28T05:43:29.206Z,24.90
2019-02-28T05:45:59.468Z,25.23
2019-02-28T05:48:30.205Z,25.87
2019-02-28T05:51:00.411Z,26.10
2019-02-28T05:53:30.600Z,25.63
2019-02-28T05:56:01.251Z,25.47
2019-02-28T05:58:31.512Z,25.10
2019-02-28T06:01:01.947Z,24.77
2019-02-28T06:03:32.210Z,24.90
2019-02-28T06:06:03.020Z,25.27
2019-02-28T06:08:35.550Z,24.67
2019-02-28T06:11:05.916Z,25.23
2019-02-28T06:13:37.082Z,26.57
2019-02-28T06:16:11.305Z,24.90
2019-02-28T06:18:39.426Z,24.70
2019-02-28T06:21:10.263Z,24.93
2019-02-28T06:23:41.622Z,25.27
2019-02-28T06:26:12.038Z,25.40
2019-02-28T06:28:42.530Z,25.50
2019-02-28T06:31:14.411Z,24.90
2019-02-28T06:33:45.906Z,24.60
2019-02-28T06:36:16.183Z,23.90
2019-02-28T06:38:46.595Z,22.53
2019-02-28T06:41:16.710Z,22.47
2019-02-28T06:43:47.127Z,23.60
2019-02-28T06:46:17.392Z,22.60
2019-02-28T06:48:48.178Z,21.90
2019-02-28T06:51:18.446Z,22.63
2019-02-28T06:53:48.902Z,22.33
2019-02-28T06:56:22.190Z,22.03
2019-02-28T06:58:51.490Z,22.27
2019-02-28T07:01:22.861Z,22.17
2019-02-28T07:03:53.822Z,21.17
2019-02-28T07:06:24.100Z,21.27
2019-02-28T07:08:54.520Z,22.03
2019-02-28T07:11:24.856Z,22.33
2019-02-28T07:13:55.395Z,22.13
2019-02-28T07:16:25.689Z,21.63
2019-02-28T07:18:56.645Z,21.67
2019-02-28T07:21:26.920Z,21.17
2019-02-28T07:23:58.261Z,20.50
2019-02-28T07:26:28.543Z,20.93
2019-02-28T07:28:59.003Z,20.17
2019-02-28T07:31:29.303Z,20.40
2019-02-28T07:33:59.566Z,21.13
2019-02-28T07:36:30.050Z,21.83
2019-02-28T07:39:01.311Z,21.13
2019-02-28T07:41:34.074Z,21.10
2019-02-28T07:44:04.522Z,20.53
2019-02-28T07:46:34.872Z,20.60
2019-02-28T07:49:05.306Z,19.83
2019-02-28T07:51:35.975Z,20.80
2019-02-28T07:54:06.250Z,19.87
2019-02-28T07:56:42.740Z,18.83
2019-02-28T07:59:08.976Z,20.50
2019-02-28T08:01:39.282Z,20.20
2019-02-28T08:04:09.575Z,20.93
2019-02-28T08:06:40.504Z,20.13
2019-02-28T08:09:30.754Z,19.63
2019-02-28T08:12:01.045Z,20.13
2019-02-28T08:14:31.658Z,18.70
2019-02-28T08:17:02.046Z,20.37
2019-02-28T08:19:32.738Z,20.47
2019-02-28T08:22:03.146Z,20.83
2019-02-28T08:24:35.838Z,20.50
2019-02-28T08:27:06.324Z,20.13
2019-02-28T08:29:36.624Z,20.97
2019-02-28T08:32:08.160Z,21.00
2019-02-28T08:34:38.474Z,21.47
2019-02-28T08:37:08.808Z,21.43
2019-02-28T08:39:41.226Z,22.67
2019-02-28T08:42:11.447Z,24.37
2019-02-28T08:44:42.890Z,24.20
2019-02-28T08:47:13.425Z,25.03
2019-02-28T08:49:45.514Z,21.93
2019-02-28T08:52:15.542Z,23.80
2019-02-28T08:54:45.785Z,24.00
2019-02-28T08:57:16.081Z,22.53
2019-02-28T08:59:46.378Z,22.70
2019-02-28T09:02:18.323Z,22.70
2019-02-28T09:04:50.863Z,20.27
2019-02-28T09:07:20.963Z,22.17
2019-02-28T09:09:52.538Z,22.83
2019-02-28T09:12:22.818Z,24.03
2019-02-28T09:14:55.363Z,22.93
2019-02-28T09:17:25.320Z,21.63
2019-02-28T09:19:55.901Z,23.57
2019-02-28T09:22:27.348Z,23.53
2019-02-28T09:24:58.305Z,21.60
2019-02-28T09:27:28.571Z,22.00
2019-02-28T09:29:58.733Z,24.97
2019-02-28T09:32:29.090Z,23.77
2019-02-28T09:35:02.557Z,23.83
2019-02-28T09:37:31.243Z,23.60
2019-02-28T09:40:01.541Z,23.17
2019-02-28T09:42:32.114Z,24.13
2019-02-28T09:45:06.757Z,23.33
2019-02-28T09:47:35.375Z,25.50
2019-02-28T09:50:06.460Z,23.73
2019-02-28T09:52:41.250Z,24.27
2019-02-28T09:55:09.161Z,25.50
2019-02-28T09:57:39.459Z,25.53
2019-02-28T10:00:12.748Z,24.83
2019-02-28T10:02:44.050Z,25.20
2019-02-28T10:05:15.231Z,25.73
2019-02-28T10:07:46.027Z,25.00
2019-02-28T10:10:21.027Z,26.53
2019-02-28T10:12:50.263Z,25.97
2019-02-28T10:15:21.159Z,25.77
2019-02-28T10:17:51.960Z,28.23
2019-02-28T10:20:27.110Z,23.87
2019-02-28T10:22:57.014Z,24.57
2019-02-28T10:25:28.458Z,24.50
2019-02-28T10:28:02.546Z,25.00
2019-02-28T10:30:32.551Z,25.27
2019-02-28T10:33:04.320Z,23.77
2019-02-28T10:35:36.947Z,23.33
2019-02-28T10:38:06.378Z,25.70
2019-02-28T10:40:36.628Z,24.80
2019-02-28T10:43:08.219Z,27.17
2019-02-28T10:45:41.978Z,25.53
2019-02-28T10:48:10.659Z,25.60
2019-02-28T10:50:40.902Z,24.17
2019-02-28T10:53:11.624Z,25.37
2019-02-28T10:55:42.306Z,25.97
2019-02-28T10:58:15.414Z,25.23
2019-02-28T11:00:45.002Z,23.67
2019-02-28T11:03:15.824Z,26.70
2019-02-28T11:05:46.991Z,24.13
2019-02-28T11:08:19.292Z,25.23
2019-02-28T11:10:49.727Z,25.77
2019-02-28T11:13:20.110Z,25.67
2019-02-28T11:15:50.592Z,25.57
2019-02-28T11:18:20.870Z,24.93
2019-02-28T11:20:51.322Z,23.37
2019-02-28T11:23:22.968Z,21.37
2019-02-28T11:25:54.175Z,22.50
2019-02-28T11:28:27.920Z,23.90
2019-02-28T11:30:57.138Z,25.03
2019-02-28T11:33:27.675Z,25.43
2019-02-28T11:35:59.322Z,22.83
2019-02-28T11:38:30.746Z,24.67
2019-02-28T11:41:00.966Z,25.17
2019-02-28T11:43:37.213Z,20.10
2019-02-28T11:46:04.297Z,26.10
2019-02-28T11:48:34.610Z,26.20
2019-02-28T11:51:04.898Z,27.90
2019-02-28T11:53:39.282Z,28.50
2019-02-28T11:56:07.118Z,26.03
2019-02-28T11:58:37.400Z,28.37
2019-02-28T12:01:10.473Z,23.17
2019-02-28T12:03:39.575Z,26.97
2019-02-28T12:06:09.807Z,28.03
2019-02-28T12:08:41.567Z,26.43
2019-02-28T12:11:11.924Z,28.77
2019-02-28T12:13:42.191Z,28.87
2019-02-28T12:16:12.470Z,28.47
2019-02-28T12:18:42.631Z,28.60
2019-02-28T12:21:12.900Z,28.27
2019-02-28T12:23:43.189Z,29.27
2019-02-28T12:26:14.395Z,29.00
2019-02-28T12:28:45.565Z,26.83
2019-02-28T12:31:15.808Z,25.33
2019-02-28T12:33:46.491Z,28.23
2019-02-28T12:36:16.806Z,27.10
2019-02-28T12:38:47.244Z,21.03
2019-02-28T12:41:17.527Z,23.63
2019-02-28T12:43:47.865Z,22.87
2019-02-28T12:46:18.205Z,23.57
2019-02-28T12:48:48.941Z,21.77
2019-02-28T12:51:19.679Z,24.53
2019-02-28T12:53:50.035Z,20.73
2019-02-28T12:56:20.655Z,23.77
2019-02-28T12:58:50.980Z,22.43
2019-02-28T13:01:21.673Z,21.40
2019-02-28T13:03:57.733Z,22.00
2019-02-28T13:06:24.821Z,24.60
2019-02-28T13:08:55.489Z,25.40
2019-02-28T13:11:25.795Z,24.47
2019-02-28T13:13:56.108Z,26.23
2019-02-28T13:16:26.739Z,26.27
2019-02-28T13:18:57.267Z,26.00
2019-02-28T13:21:27.783Z,24.70
2019-02-28T13:23:57.955Z,25.20
2019-02-28T13:26:30.562Z,24.00
2019-02-28T13:29:00.704Z,26.20
2019-02-28T13:31:31.002Z,23.97
2019-02-28T13:34:01.267Z,24.40
2019-02-28T13:36:31.908Z,27.30
2019-02-28T13:39:02.107Z,29.60
2019-02-28T13:41:36.653Z,26.73
2019-02-28T13:44:06.905Z,28.30
2019-02-28T13:46:37.388Z,27.67
2019-02-28T13:49:08.469Z,25.90
2019-02-28T13:51:42.084Z,25.03
2019-02-28T13:54:12.158Z,28.67
2019-02-28T13:56:42.415Z,29.07
2019-02-28T13:59:13.094Z,29.47
2019-02-28T14:01:43.483Z,28.57
2019-02-28T14:04:14.146Z,27.13
2019-02-28T14:06:44.376Z,28.77
2019-02-28T14:09:14.699Z,31.97
2019-02-28T14:11:45.881Z,32.53
2019-02-28T14:14:16.876Z,32.30
2019-02-28T14:16:47.167Z,29.07
2019-02-28T14:19:20.450Z,30.87
2019-02-28T14:21:49.782Z,31.43
2019-02-28T14:24:20.248Z,33.37
2019-02-28T14:26:50.591Z,33.70
2019-02-28T14:29:22.188Z,33.13
2019-02-28T14:31:52.555Z,33.93
2019-02-28T14:34:26.199Z,33.80
2019-02-28T14:36:54.738Z,34.73
2019-02-28T14:39:25.103Z,28.50
2019-02-28T14:41:55.304Z,34.40
2019-02-28T14:44:28.031Z,33.40
2019-02-28T14:46:57.464Z,35.50
2019-02-28T14:49:27.974Z,33.33
2019-02-28T14:52:00.402Z,34.63
2019-02-28T14:54:30.664Z,32.67
2019-02-28T14:57:00.928Z,34.93
2019-02-28T14:59:32.018Z,36.57
2019-02-28T15:02:02.378Z,33.33
2019-02-28T15:04:32.716Z,33.70
2019-02-28T15:07:04.142Z,32.87
2019-02-28T15:09:34.693Z,34.50
2019-02-28T15:12:05.104Z,36.17
2019-02-28T15:14:35.430Z,31.77
2019-02-28T15:17:07.555Z,30.93
2019-02-28T15:19:37.874Z,31.37
2019-02-28T15:22:08.137Z,30.53
2019-02-28T15:24:40.600Z,29.90
2019-02-28T15:27:10.268Z,33.10
2019-02-28T15:29:41.355Z,32.63
2019-02-28T15:32:14.238Z,31.80
2019-02-28T15:34:44.824Z,33.53
2019-02-28T15:37:15.074Z,36.03
2019-02-28T15:39:45.356Z,35.97
2019-02-28T15:42:15.682Z,33.37
2019-02-28T15:44:46.074Z,32.67
2019-02-28T15:47:19.437Z,32.83
2019-02-28T15:49:48.200Z,33.17
2019-02-28T15:52:18.528Z,32.93
2019-02-28T15:54:48.796Z,33.83
2019-02-28T15:57:19.104Z,33.97
2019-02-28T15:59:49.750Z,35.10
2019-02-28T16:02:20.982Z,32.80
2019-02-28T16:04:51.298Z,30.77
2019-02-28T16:07:22.678Z,25.93
2019-02-28T16:09:54.098Z,29.80
2019-02-28T16:12:25.280Z,30.03
2019-02-28T16:14:56.659Z,30.43
2019-02-28T16:17:27.135Z,27.97
2019-02-28T16:19:57.389Z,31.07
2019-02-28T16:22:27.702Z,29.10
2019-02-28T16:24:58.166Z,30.33
2019-02-28T16:27:32.280Z,30.17
2019-02-28T16:30:04.034Z,29.63
2019-02-28T16:32:35.027Z,27.97
2019-02-28T16:35:06.018Z,27.23
2019-02-28T16:37:36.754Z,29.83
2019-02-28T16:40:09.300Z,29.03
2019-02-28T16:42:39.914Z,29.33
2019-02-28T16:45:15.275Z,29.03
2019-02-28T16:47:45.866Z,29.33
2019-02-28T16:50:18.770Z,29.93
2019-02-28T16:52:48.512Z,28.40
2019-02-28T16:55:18.803Z,28.70
2019-02-28T16:57:49.829Z,29.67
2019-02-28T17:00:20.086Z,30.43
2019-02-28T17:02:50.581Z,29.77
2019-02-28T17:05:26.476Z,30.43
2019-02-28T17:07:53.537Z,29.30
2019-02-28T17:10:30.172Z,30.77
2019-02-28T17:13:23.122Z,31.73
2019-02-28T17:16:24.687Z,29.13
2019-02-28T17:18:56.823Z,29.57
2019-02-28T17:21:27.103Z,29.20
2019-02-28T17:23:58.804Z,29.53
2019-02-28T17:26:57.627Z,30.63
2019-02-28T17:29:36.084Z,29.07
2019-02-28T17:32:06.393Z,29.17
2019-02-28T17:34:36.711Z,30.13
2019-02-28T17:37:06.974Z,27.87
2019-02-28T17:39:37.311Z,27.93
2019-02-28T17:42:09.120Z,27.53
2019-02-28T17:45:23.627Z,26.33
2019-02-28T17:48:29.085Z,28.37
2019-02-28T17:51:14.921Z,28.87
2019-02-28T17:54:24.044Z,31.17
2019-02-28T17:57:19.197Z,30.63
2019-02-28T18:00:41.361Z,30.87
2019-02-28T18:03:52.730Z,31.00
2019-02-28T18:07:13.656Z,30.23
2019-02-28T18:10:24.230Z,29.00
2019-02-28T18:13:06.317Z,29.80
2019-02-28T18:16:08.855Z,31.37
2019-02-28T18:19:21.516Z,32.20
2019-02-28T18:22:32.686Z,29.87
2019-02-28T18:25:57.048Z,31.17
2019-02-28T18:28:58.026Z,31.43
2019-02-28T18:31:29.732Z,31.70
2019-02-28T18:34:02.987Z,34.20
2019-02-28T18:36:33.436Z,31.20
2019-02-28T18:39:08.169Z,30.73
2019-02-28T18:41:38.971Z,33.50
2019-02-28T18:44:11.510Z,32.23
2019-02-28T18:46:41.780Z,30.33
2019-02-28T18:49:12.226Z,31.03
2019-02-28T18:51:42.522Z,32.03
2019-02-28T18:54:12.924Z,29.07
2019-02-28T18:56:43.286Z,31.67
2019-02-28T18:59:13.717Z,30.73
2019-02-28T19:01:44.183Z,31.63
2019-02-28T19:04:14.598Z,32.13
2019-02-28T19:06:45.120Z,31.10
2019-02-28T19:09:24.168Z,30.70
2019-02-28T19:11:54.739Z,31.23
2019-02-28T19:14:24.990Z,31.60
2019-02-28T19:16:55.327Z,24.83
2019-02-28T19:19:25.635Z,28.20
2019-02-28T19:21:56.342Z,26.20
2019-02-28T19:24:26.912Z,29.00
2019-02-28T19:26:57.224Z,26.90
2019-02-28T19:29:28.038Z,26.63
2019-02-28T19:31:58.464Z,23.63
2019-02-28T19:34:28.988Z,28.87
2019-02-28T19:36:59.286Z,25.63
2019-02-28T19:39:29.555Z,25.13
2019-02-28T19:42:00.295Z,27.37
2019-02-28T19:44:30.643Z,27.83
2019-02-28T19:47:01.013Z,26.27
2019-02-28T19:49:31.525Z,17.60
2019-02-28T19:52:02.020Z,11.50
2019-02-28T19:54:32.748Z,9.23
2019-02-28T19:57:03.079Z,7.33
2019-02-28T19:59:33.435Z,6.20
2019-02-28T20:02:03.934Z,4.53
2019-02-28T20:04:34.222Z,3.03
2019-02-28T20:07:04.728Z,2.60
2019-02-28T20:09:36.381Z,2.87
2019-02-28T20:12:06.720Z,2.60
2019-02-28T20:14:37.460Z,2.30
2019-02-28T20:17:07.760Z,2.60
2019-02-28T20:19:38.140Z,2.40
2019-02-28T20:22:08.642Z,2.67
2019-02-28T20:24:39.418Z,2.80
2019-02-28T20:27:09.828Z,4.10
2019-02-28T20:29:40.193Z,3.70
2019-02-28T20:32:10.450Z,4.50
2019-02-28T20:34:40.786Z,3.77
2019-02-28T20:37:12.527Z,2.80
2019-02-28T20:39:42.817Z,2.60
2019-02-28T20:42:13.141Z,2.60
2019-02-28T20:44:43.431Z,2.57
2019-02-28T20:47:13.783Z,2.10
2019-02-28T20:49:44.053Z,2.30
2019-02-28T20:52:14.506Z,2.60
2019-02-28T20:54:45.648Z,2.50
2019-02-28T20:57:16.460Z,2.10
2019-02-28T20:59:46.658Z,2.20
2019-02-28T21:02:18.769Z,2.80
2019-02-28T21:04:49.010Z,2.50
2019-02-28T21:07:19.494Z,2.60
2019-02-28T21:09:50.143Z,2.37
2019-02-28T21:12:20.581Z,2.60
2019-02-28T21:14:50.841Z,2.30
2019-02-28T21:17:29.196Z,2.20
2019-02-28T21:19:53.143Z,2.30
2019-02-28T21:22:23.900Z,2.33
2019-02-28T21:24:54.229Z,2.40
2019-02-28T21:27:25.152Z,2.40
2019-02-28T21:29:55.850Z,2.07
2019-02-28T21:32:26.665Z,2.20
2019-02-28T21:34:57.271Z,2.60
2019-02-28T21:37:27.433Z,2.90
2019-02-28T21:40:00.746Z,2.83
2019-02-28T21:42:31.186Z,2.70
2019-02-28T21:45:01.506Z,2.70
2019-02-28T21:47:32.455Z,3.20
2019-02-28T21:50:03.389Z,3.00
2019-02-28T21:52:33.959Z,3.80
2019-02-28T21:55:04.835Z,3.67
2019-02-28T21:57:36.718Z,4.40
2019-02-28T22:00:11.207Z,4.47
2019-02-28T22:02:43.147Z,4.53
2019-02-28T22:05:14.631Z,4.37
2019-02-28T22:07:44.892Z,4.97
2019-02-28T22:10:16.517Z,4.93
2019-02-28T22:12:47.939Z,5.77
2019-02-28T22:15:18.686Z,5.93
2019-02-28T22:17:49.026Z,6.40
2019-02-28T22:20:19.366Z,7.43
2019-02-28T22:22:49.740Z,8.07
2019-02-28T22:25:19.991Z,10.73
2019-02-28T22:27:50.552Z,12.40
2019-02-28T22:30:46.384Z,16.13
2019-02-28T22:33:24.677Z,17.93
2019-02-28T22:35:56.912Z,20.33
2019-02-28T22:38:27.464Z,23.43
2019-02-28T22:40:57.759Z,26.17
2019-02-28T22:43:28.315Z,26.10
2019-02-28T22:45:58.601Z,28.20
2019-02-28T22:48:29.184Z,28.97
2019-02-28T22:50:59.459Z,30.30
2019-02-28T22:53:29.713Z,30.63
2019-02-28T22:56:00.198Z,30.77
2019-02-28T22:58:30.368Z,29.70
2019-02-28T23:01:10.455Z,30.60
2019-02-28T23:03:41.209Z,29.27
2019-02-28T23:06:12.273Z,28.93
2019-02-28T23:08:42.552Z,28.83
2019-02-28T23:11:13.480Z,29.70
2019-02-28T23:13:43.710Z,30.17
2019-02-28T23:16:14.652Z,28.97
2019-02-28T23:18:44.898Z,28.67
2019-02-28T23:21:15.363Z,30.07
2019-02-28T23:23:45.666Z,29.17
2019-02-28T23:26:16.294Z,30.43
2019-02-28T23:28:56.489Z,29.93
2019-02-28T23:32:16.989Z,28.80
2019-02-28T23:34:54.878Z,30.17
2019-02-28T23:37:25.162Z,26.97
2019-02-28T23:39:55.406Z,28.33
2019-02-28T23:42:25.866Z,29.93
2019-02-28T23:44:56.174Z,30.83
2019-02-28T23:47:27.535Z,32.20
2019-02-28T23:49:58.053Z,31.87
2019-02-28T23:52:28.597Z,34.70
2019-02-28T23:55:00.032Z,33.27
2019-02-28T23:57:30.590Z,33.40
